createdAt,value
2019-06-07T00:01:30.818Z,5.47
2019-06-07T00:04:01.496Z,4.70
2019-06-07T00:06:32.668Z,5.10
2019-06-07T00:09:03.351Z,5.63
2019-06-07T00:11:35.274Z,5.97
2019-06-07T00:14:06.420Z,6.07
2019-06-07T00:16:37.015Z,5.70
2019-06-07T00:19:09.533Z,6.17
2019-06-07T00:22:13.588Z,6.57
2019-06-07T00:24:14.270Z,7.57
2019-06-07T00:26:57.687Z,7.00
2019-06-07T00:29:19.584Z,7.17
2019-06-07T00:31:51.306Z,6.93
2019-06-07T00:34:23.013Z,7.63
2019-06-07T01:03:03.378Z,14.30
2019-06-07T01:05:34.348Z,13.20
2019-06-07T01:08:05.087Z,10.63
2019-06-07T01:10:52.939Z,10.20
2019-06-07T01:13:08.412Z,11.60
2019-06-07T01:15:39.106Z,8.97
2019-06-07T01:18:37.028Z,10.27
2019-06-07T01:20:41.841Z,9.87
2019-06-07T01:23:57.949Z,9.50
2019-06-07T01:25:45.077Z,9.53
2019-06-07T01:28:16.654Z,9.17
2019-06-07T01:31:03.636Z,8.47
2019-06-07T01:33:50.384Z,8.33
2019-06-07T01:36:06.899Z,8.53
2019-06-07T01:38:38.283Z,8.67
2019-06-07T01:41:09.348Z,8.23
2019-06-07T01:43:39.916Z,8.80
2019-06-07T01:46:10.789Z,8.23
2019-06-07T01:48:49.503Z,9.87
2019-06-07T01:51:14.805Z,9.30
2019-06-07T01:53:46.040Z,9.70
2019-06-07T01:56:18.908Z,10.10
2019-06-07T01:58:49.454Z,9.07
2019-06-07T02:01:21.693Z,10.30
2019-06-07T02:03:53.278Z,9.57
2019-06-07T02:06:27.921Z,8.50
2019-06-07T02:08:56.745Z,9.57
2019-06-07T02:11:29.420Z,9.83
2019-06-07T02:14:00.486Z,10.33
2019-06-07T02:16:32.598Z,9.33
2019-06-07T02:19:04.108Z,9.50
2019-06-07T02:21:34.927Z,9.63
2019-06-07T02:24:05.913Z,9.40
2019-06-07T02:26:37.287Z,9.60
2019-06-07T02:29:08.587Z,8.57
2019-06-07T02:31:40.028Z,9.77
2019-06-07T02:34:11.185Z,9.77
2019-06-07T02:36:41.957Z,9.23
2019-06-07T02:39:12.273Z,8.63
2019-06-07T02:41:43.321Z,8.23
2019-06-07T02:44:14.425Z,9.50
2019-06-07T02:46:49.510Z,8.50
2019-06-07T02:49:17.987Z,8.87
2019-06-07T02:51:49.360Z,8.93
2019-06-07T02:54:19.762Z,8.00
2019-06-07T02:56:58.030Z,8.63
2019-06-07T02:59:46.879Z,8.60
2019-06-07T03:01:57.822Z,9.53
2019-06-07T03:04:36.812Z,8.93
2019-06-07T03:07:04.449Z,9.10
2019-06-07T03:09:37.215Z,8.63
2019-06-07T03:12:09.605Z,8.60
2019-06-07T03:14:40.247Z,9.17
2019-06-07T03:17:52.468Z,8.43
2019-06-07T03:20:24.176Z,8.60
2019-06-07T03:22:55.234Z,8.50
2019-06-07T03:25:28.207Z,8.77
2019-06-07T03:27:59.638Z,8.53
2019-06-07T03:30:52.137Z,8.30
2019-06-07T03:33:03.144Z,8.30
2019-06-07T03:35:35.288Z,8.17
2019-06-07T03:38:06.830Z,8.20
2019-06-07T03:40:39.954Z,7.47
2019-06-07T03:43:10.512Z,8.27
2019-06-07T03:45:41.840Z,8.13
2019-06-07T03:48:13.206Z,8.97
2019-06-07T03:50:44.333Z,7.70
2019-06-07T03:53:15.403Z,8.10
2019-06-07T03:55:45.774Z,8.03
2019-06-07T03:58:31.439Z,7.03
2019-06-07T04:00:49.662Z,8.87
2019-06-07T04:03:33.322Z,8.33
2019-06-07T04:05:53.802Z,7.40
2019-06-07T04:08:25.216Z,8.50
2019-06-07T04:11:00.410Z,7.63
2019-06-07T04:13:30.475Z,7.67
2019-06-07T04:16:00.772Z,7.30
2019-06-07T04:18:33.077Z,7.60
2019-06-07T04:21:03.802Z,7.50
2019-06-07T04:23:37.995Z,8.07
2019-06-07T04:26:06.948Z,8.17
2019-06-07T04:31:10.777Z,7.80
2019-06-07T04:33:43.503Z,7.67
2019-06-07T04:36:14.364Z,8.83
2019-06-07T04:38:46.363Z,7.83
2019-06-07T04:41:17.927Z,7.80
2019-06-07T04:43:49.995Z,9.20
2019-06-07T04:46:23.062Z,8.67
2019-06-07T04:48:55.003Z,10.33
2019-06-07T04:51:27.344Z,10.07
2019-06-07T04:53:58.632Z,9.80
2019-06-07T04:56:30.068Z,9.23
2019-06-07T04:59:02.365Z,10.40
2019-06-07T05:01:34.892Z,9.67
2019-06-07T05:04:06.168Z,10.77
2019-06-07T05:06:39.676Z,10.70
2019-06-07T05:09:09.749Z,10.50
2019-06-07T05:11:44.987Z,11.07
2019-06-07T05:14:12.572Z,11.37
2019-06-07T05:16:44.468Z,10.83
2019-06-07T05:19:16.598Z,10.20
2019-06-07T05:22:02.806Z,10.90
2019-06-07T05:24:25.673Z,11.03
2019-06-07T05:26:56.588Z,10.33
2019-06-07T05:29:27.255Z,11.80
2019-06-07T05:31:58.353Z,10.73
2019-06-07T05:34:28.834Z,11.60
2019-06-07T05:37:11.618Z,11.50
2019-06-07T05:39:42.439Z,11.20
2019-06-07T05:42:11.135Z,11.27
2019-06-07T05:45:11.012Z,10.90
2019-06-07T05:47:49.660Z,10.67
2019-06-07T05:52:52.353Z,10.63
2019-06-07T05:55:24.187Z,11.23
2019-06-07T05:57:55.420Z,10.67
2019-06-07T06:00:26.090Z,10.47
2019-06-07T06:03:05.724Z,11.17
2019-06-07T06:05:36.547Z,11.43
2019-06-07T06:08:04.437Z,10.47
2019-06-07T06:10:46.247Z,10.67
2019-06-07T06:13:13.809Z,10.33
2019-06-07T06:15:56.333Z,10.83
2019-06-07T06:18:16.986Z,11.83
2019-06-07T06:21:11.801Z,11.80
2019-06-07T06:23:19.893Z,10.87
2019-06-07T06:25:56.491Z,12.13
2019-06-07T06:28:27.503Z,12.60
2019-06-07T06:30:58.374Z,12.97
2019-06-07T06:33:34.440Z,12.23
2019-06-07T06:36:02.781Z,12.60
2019-06-07T06:38:33.743Z,12.47
2019-06-07T06:41:15.089Z,12.67
2019-06-07T06:43:38.583Z,12.70
2019-06-07T06:46:09.919Z,12.90
2019-06-07T06:48:47.387Z,12.03
2019-06-07T06:51:14.741Z,11.10
2019-06-07T06:53:46.894Z,12.47
2019-06-07T06:56:18.257Z,12.37
2019-06-07T06:59:28.288Z,12.60
2019-06-07T07:01:21.643Z,11.37
2019-06-07T07:04:11.276Z,11.33
2019-06-07T07:06:26.982Z,11.70
2019-06-07T07:08:59.368Z,11.47
2019-06-07T07:11:30.173Z,10.40
2019-06-07T07:14:01.399Z,10.90
2019-06-07T07:16:31.765Z,11.63
2019-06-07T07:19:02.399Z,11.27
2019-06-07T07:21:33.116Z,11.00
2019-06-07T07:24:20.258Z,10.17
2019-06-07T07:26:36.813Z,11.20
2019-06-07T07:29:07.564Z,10.17
2019-06-07T07:31:38.191Z,10.67
2019-06-07T07:36:40.633Z,9.63
2019-06-07T07:39:11.605Z,10.73
2019-06-07T07:42:04.473Z,9.80
2019-06-07T07:44:15.538Z,10.23
2019-06-07T07:46:46.604Z,9.70
2019-06-07T07:49:17.917Z,10.13
2019-06-07T07:51:49.647Z,9.70
2019-06-07T07:54:21.538Z,9.90
2019-06-07T07:56:56.070Z,9.70
2019-06-07T07:59:41.212Z,9.40
2019-06-07T08:01:58.773Z,9.50
2019-06-07T08:05:12.996Z,9.80
2019-06-07T08:07:02.429Z,9.68
2019-06-07T08:09:33.421Z,9.33
2019-06-07T08:12:04.470Z,10.40
2019-06-07T08:14:35.495Z,9.47
2019-06-07T08:17:06.432Z,10.27
2019-06-07T08:19:36.791Z,9.70
2019-06-07T08:22:07.722Z,7.83
2019-06-07T08:24:38.326Z,9.83
2019-06-07T08:27:25.306Z,9.30
2019-06-07T08:29:45.415Z,9.68
2019-06-07T08:32:14.026Z,9.63
2019-06-07T08:34:44.662Z,7.95
2019-06-07T08:37:15.623Z,9.10
2019-06-07T08:39:46.211Z,9.40
2019-06-07T08:42:22.021Z,9.78
2019-06-07T08:44:50.679Z,8.23
2019-06-07T08:47:22.422Z,8.13
2019-06-07T08:49:56.752Z,8.40
2019-06-07T08:52:25.743Z,7.70
2019-06-07T08:54:57.850Z,8.20
2019-06-07T08:57:29.149Z,8.80
2019-06-07T09:00:16.275Z,8.48
2019-06-07T09:02:34.712Z,7.70
2019-06-07T09:05:12.143Z,9.13
2019-06-07T09:07:38.400Z,8.83
2019-06-07T09:10:14.117Z,8.33
2019-06-07T09:12:43.924Z,8.45
2019-06-07T09:15:22.888Z,7.75
2019-06-07T09:18:30.370Z,7.67
2019-06-07T09:20:36.297Z,7.87
2019-06-07T09:22:59.070Z,10.50
2019-06-07T09:25:26.815Z,10.45
2019-06-07T09:28:00.715Z,10.35
2019-06-07T09:30:42.143Z,9.65
2019-06-07T09:33:13.046Z,10.13
2019-06-07T09:35:44.199Z,9.35
2019-06-07T09:38:24.911Z,10.35
2019-06-07T09:40:47.316Z,10.03
2019-06-07T09:43:59.962Z,9.73
2019-06-07T09:45:51.429Z,10.68
2019-06-07T09:49:09.139Z,10.48
2019-06-07T09:50:54.774Z,9.75
2019-06-07T09:53:25.721Z,10.18
2019-06-07T09:56:02.495Z,10.23
2019-06-07T09:58:50.993Z,9.13
2019-06-07T10:01:05.884Z,9.20
2019-06-07T10:03:34.610Z,10.63
2019-06-07T10:06:09.874Z,9.78
2019-06-07T10:09:56.994Z,10.18
2019-06-07T10:11:14.424Z,8.28
2019-06-07T10:13:44.741Z,9.98
2019-06-07T10:16:15.840Z,9.85
2019-06-07T10:18:46.784Z,10.03
2019-06-07T10:21:17.722Z,10.38
2019-06-07T10:23:48.686Z,10.03
2019-06-07T10:26:19.306Z,9.55
2019-06-07T10:28:53.374Z,8.33
2019-06-07T10:31:22.426Z,9.88
2019-06-07T10:33:52.764Z,8.65
2019-06-07T10:36:23.753Z,8.53
2019-06-07T10:38:54.429Z,9.10
2019-06-07T10:41:25.063Z,8.40
2019-06-07T10:43:56.367Z,7.55
2019-06-07T10:46:27.625Z,7.53
2019-06-07T10:48:58.323Z,6.90
2019-06-07T10:51:29.415Z,8.20
2019-06-07T10:54:00.610Z,7.45
2019-06-07T10:56:31.562Z,8.33
2019-06-07T10:59:03.116Z,7.42
2019-06-07T11:01:34.174Z,7.17
2019-06-07T11:04:05.714Z,7.62
2019-06-07T11:06:36.169Z,6.78
2019-06-07T11:09:10.015Z,7.28
2019-06-07T11:11:40.499Z,7.53
2019-06-07T11:14:12.635Z,5.75
2019-06-07T11:16:43.397Z,6.17
2019-06-07T11:19:17.655Z,5.47
2019-06-07T11:22:04.438Z,5.75
2019-06-07T11:24:35.347Z,5.90
2019-06-07T11:27:07.380Z,5.75
2019-06-07T11:29:39.063Z,5.30
2019-06-07T11:32:10.531Z,6.65
2019-06-07T11:34:41.248Z,6.50
2019-06-07T11:37:13.626Z,6.60
2019-06-07T11:39:44.239Z,6.15
2019-06-07T11:42:14.883Z,5.65
2019-06-07T11:44:57.052Z,4.53
2019-06-07T11:47:27.535Z,5.55
2019-06-07T11:49:59.478Z,5.00
2019-06-07T11:52:30.224Z,5.05
2019-06-07T11:55:00.877Z,4.97
2019-06-07T11:57:31.741Z,4.20
2019-06-07T12:00:02.121Z,4.10
2019-06-07T12:02:32.796Z,3.70
2019-06-07T12:05:03.452Z,3.52
2019-06-07T12:07:34.537Z,3.45
2019-06-07T12:10:05.189Z,3.37
2019-06-07T12:12:35.883Z,3.20
2019-06-07T12:15:06.955Z,3.40
2019-06-07T12:17:37.712Z,3.95
2019-06-07T12:20:10.782Z,2.92
2019-06-07T12:22:41.482Z,3.17
2019-06-07T12:25:12.890Z,3.00
2019-06-07T12:27:47.781Z,3.35
2019-06-07T12:30:26.078Z,4.03
2019-06-07T12:32:51.287Z,3.62
2019-06-07T12:35:21.915Z,3.77
2019-06-07T12:37:52.938Z,2.95
2019-06-07T12:40:30.573Z,3.00
2019-06-07T12:42:56.076Z,2.85
2019-06-07T12:45:43.715Z,3.10
2019-06-07T12:47:59.866Z,3.20
2019-06-07T12:50:42.799Z,3.50
2019-06-07T12:53:03.891Z,3.40
2019-06-07T12:55:34.249Z,3.30
2019-06-07T12:58:05.909Z,3.70
2019-06-07T13:00:36.245Z,2.95
2019-06-07T13:03:07.339Z,3.10
2019-06-07T13:05:38.283Z,2.80
2019-06-07T13:08:08.934Z,2.58
2019-06-07T13:10:39.777Z,2.83
2019-06-07T13:13:10.686Z,2.60
2019-06-07T13:15:41.020Z,2.30
2019-06-07T13:18:14.979Z,2.75
2019-06-07T13:20:44.036Z,2.83
2019-06-07T13:23:16.074Z,2.50
2019-06-07T13:25:47.239Z,2.40
2019-06-07T13:28:18.957Z,2.40
2019-06-07T13:30:49.829Z,2.65
2019-06-07T13:33:21.777Z,2.10
2019-06-07T13:35:52.938Z,2.20
2019-06-07T13:38:29.115Z,2.17
2019-06-07T13:40:59.815Z,2.27
2019-06-07T13:43:30.601Z,2.60
2019-06-07T13:46:01.319Z,2.30
2019-06-07T13:48:31.646Z,2.80
2019-06-07T13:51:02.966Z,2.72
2019-06-07T13:53:34.431Z,2.70
2019-06-07T13:56:05.446Z,2.22
2019-06-07T13:58:44.019Z,2.50
2019-06-07T14:01:14.715Z,2.08
2019-06-07T14:03:45.081Z,2.42
2019-06-07T14:06:16.185Z,2.20
2019-06-07T14:08:47.188Z,2.52
2019-06-07T14:11:19.532Z,2.08
2019-06-07T14:13:49.816Z,2.20
2019-06-07T14:16:20.441Z,2.55
2019-06-07T14:18:51.424Z,2.80
2019-06-07T14:21:22.586Z,2.58
2019-06-07T14:23:53.345Z,2.47
2019-06-07T14:26:25.064Z,2.90
2019-06-07T14:28:55.572Z,2.85
2019-06-07T14:31:26.341Z,3.00
2019-06-07T14:33:59.045Z,3.33
2019-06-07T14:36:31.062Z,2.90
2019-06-07T14:39:02.057Z,3.40
2019-06-07T14:41:40.262Z,3.33
2019-06-07T14:44:11.567Z,3.10
2019-06-07T14:46:44.389Z,3.75
2019-06-07T14:49:16.289Z,3.58
2019-06-07T14:51:47.580Z,2.90
2019-06-07T14:54:18.199Z,3.12
2019-06-07T14:56:48.605Z,3.60
2019-06-07T14:59:19.181Z,2.92
2019-06-07T15:01:49.960Z,2.83
2019-06-07T15:04:20.928Z,2.62
2019-06-07T15:06:52.005Z,3.15
2019-06-07T15:09:22.348Z,2.50
2019-06-07T15:11:52.703Z,2.80
2019-06-07T15:14:23.662Z,3.30
2019-06-07T15:16:54.076Z,2.83
2019-06-07T15:19:24.518Z,2.70
2019-06-07T15:21:55.610Z,3.08
2019-06-07T15:24:28.012Z,2.87
2019-06-07T15:26:59.553Z,3.00
2019-06-07T15:29:31.704Z,3.42
2019-06-07T15:32:02.253Z,2.98
2019-06-07T15:34:34.262Z,3.27
2019-06-07T15:37:05.513Z,2.75
2019-06-07T15:39:36.663Z,2.70
2019-06-07T15:42:07.271Z,2.60
2019-06-07T15:44:37.871Z,3.27
2019-06-07T15:47:08.871Z,3.30
2019-06-07T15:49:40.349Z,2.92
2019-06-07T15:52:11.102Z,3.37
2019-06-07T15:54:41.780Z,3.15
2019-06-07T15:57:12.590Z,3.30
2019-06-07T15:59:43.178Z,3.17
2019-06-07T16:02:13.879Z,3.67
2019-06-07T16:04:44.830Z,3.47
2019-06-07T16:07:15.551Z,3.60
2019-06-07T16:09:46.467Z,4.08
2019-06-07T16:12:17.123Z,3.77
2019-06-07T16:14:48.079Z,4.00
2019-06-07T16:17:19.280Z,4.33
2019-06-07T16:19:49.995Z,3.87
2019-06-07T16:22:21.108Z,3.98
2019-06-07T16:24:51.951Z,4.05
2019-06-07T16:27:22.717Z,4.00
2019-06-07T16:29:55.140Z,3.85
2019-06-07T16:32:26.286Z,3.60
2019-06-07T16:34:57.226Z,3.52
2019-06-07T16:37:28.350Z,4.03
2019-06-07T16:39:58.695Z,3.27
2019-06-07T16:42:29.730Z,3.67
2019-06-07T16:45:01.347Z,3.95
2019-06-07T16:47:32.366Z,3.70
2019-06-07T16:50:03.320Z,3.85
2019-06-07T16:52:37.264Z,4.05
2019-06-07T16:55:08.186Z,4.15
2019-06-07T16:57:39.006Z,3.85
2019-06-07T17:00:11.037Z,3.60
2019-06-07T17:02:42.396Z,3.55
2019-06-07T17:05:14.349Z,3.95
2019-06-07T17:07:46.956Z,3.62
2019-06-07T17:10:19.479Z,3.70
2019-06-07T17:12:50.921Z,3.98
2019-06-07T17:15:21.269Z,4.03
2019-06-07T17:17:52.628Z,3.22
2019-06-07T17:20:28.471Z,3.35
2019-06-07T17:23:04.012Z,3.30
2019-06-07T17:25:35.553Z,3.75
2019-06-07T17:28:06.199Z,3.50
2019-06-07T17:30:36.818Z,3.40
2019-06-07T17:33:07.497Z,3.43
2019-06-07T17:35:38.493Z,3.57
2019-06-07T17:38:11.464Z,3.33
2019-06-07T17:40:45.416Z,3.30
2019-06-07T17:43:18.452Z,3.50
2019-06-07T17:45:49.415Z,3.30
2019-06-07T17:48:23.858Z,3.40
2019-06-07T17:50:52.922Z,3.90
2019-06-07T17:53:24.049Z,3.10
2019-06-07T17:55:55.072Z,2.90
2019-06-07T17:58:25.721Z,2.73
2019-06-07T18:00:56.347Z,2.93
2019-06-07T18:03:26.969Z,2.60
2019-06-07T18:05:57.639Z,2.20
2019-06-07T18:08:30.507Z,2.40
2019-06-07T18:11:01.555Z,1.93
2019-06-07T18:13:32.174Z,2.20
2019-06-07T18:16:02.469Z,1.90
2019-06-07T18:18:33.277Z,2.00
2019-06-07T18:21:03.670Z,2.10
2019-06-07T18:23:35.026Z,2.00
2019-06-07T18:26:06.479Z,2.00
2019-06-07T18:28:36.955Z,1.50
2019-06-07T18:31:07.927Z,1.30
2019-06-07T18:33:41.125Z,2.10
2019-06-07T18:36:12.306Z,1.70
2019-06-07T18:38:43.302Z,1.67
2019-06-07T18:41:14.341Z,1.73
2019-06-07T18:43:45.442Z,1.53
2019-06-07T18:46:17.007Z,1.40
2019-06-07T18:48:48.387Z,1.50
2019-06-07T18:51:19.763Z,1.90
2019-06-07T18:53:51.640Z,1.60
2019-06-07T18:56:22.958Z,1.37
2019-06-07T18:58:53.588Z,1.60
2019-06-07T19:01:25.212Z,1.67
2019-06-07T19:03:58.141Z,1.40
2019-06-07T19:06:29.148Z,1.40
2019-06-07T19:09:00.077Z,1.47
2019-06-07T19:11:30.401Z,1.50
2019-06-07T19:14:02.012Z,1.27
2019-06-07T19:16:32.710Z,2.03
2019-06-07T19:19:03.358Z,1.67
2019-06-07T19:21:34.402Z,1.30
2019-06-07T19:24:04.831Z,1.90
2019-06-07T19:26:35.426Z,1.60
2019-06-07T19:29:06.289Z,1.43
2019-06-07T19:31:36.868Z,1.33
2019-06-07T19:34:07.218Z,1.50
2019-06-07T19:36:48.438Z,1.30
2019-06-07T19:39:11.101Z,2.10
2019-06-07T19:41:41.679Z,1.20
2019-06-07T19:44:12.837Z,1.23
2019-06-07T19:46:45.936Z,1.60
2019-06-07T19:49:16.942Z,1.80
2019-06-07T19:51:48.584Z,1.37
2019-06-07T19:54:19.639Z,1.20
2019-06-07T19:56:50.727Z,2.23
2019-06-07T19:59:22.022Z,1.27
2019-06-07T20:01:53.610Z,1.27
2019-06-07T20:04:24.288Z,1.10
2019-06-07T20:06:56.137Z,1.53
2019-06-07T20:09:26.564Z,1.40
2019-06-07T20:11:58.455Z,1.57
2019-06-07T20:14:29.826Z,1.60
2019-06-07T20:17:01.380Z,1.03
2019-06-07T20:19:31.897Z,1.23
2019-06-07T20:22:03.172Z,1.30
2019-06-07T20:24:34.285Z,1.00
2019-06-07T20:27:04.934Z,1.53
2019-06-07T20:29:35.965Z,1.17
2019-06-07T20:32:06.825Z,1.20
2019-06-07T20:34:38.346Z,0.97
2019-06-07T20:37:09.380Z,1.30
2019-06-07T20:39:40.020Z,1.30
2019-06-07T20:42:10.648Z,0.97
2019-06-07T20:44:41.697Z,1.17
2019-06-07T20:47:12.429Z,1.10
2019-06-07T20:49:43.703Z,0.70
2019-06-07T20:52:14.910Z,1.10
2019-06-07T20:54:46.267Z,1.27
2019-06-07T20:57:17.569Z,1.23
2019-06-07T20:59:47.935Z,1.00
2019-06-07T21:02:18.263Z,1.10
2019-06-07T21:04:50.737Z,1.10
2019-06-07T21:07:21.370Z,1.30
2019-06-07T21:09:52.652Z,1.10
2019-06-07T21:12:23.266Z,1.07
2019-06-07T21:14:54.095Z,1.13
2019-06-07T21:17:25.228Z,1.20
2019-06-07T21:19:55.933Z,1.10
2019-06-07T21:22:26.560Z,1.00
2019-06-07T21:24:57.559Z,1.17
2019-06-07T21:27:28.770Z,1.03
2019-06-07T21:30:01.071Z,1.17
2019-06-07T21:32:31.880Z,1.30
2019-06-07T21:35:03.757Z,1.27
2019-06-07T21:37:34.322Z,1.23
2019-06-07T21:40:06.024Z,1.10
2019-06-07T21:42:36.494Z,1.30
2019-06-07T21:45:13.626Z,1.20
2019-06-07T21:47:44.334Z,1.03
2019-06-07T21:50:15.016Z,1.10
2019-06-07T21:52:46.389Z,1.10
2019-06-07T21:55:17.941Z,0.80
2019-06-07T21:57:48.287Z,1.10
2019-06-07T22:00:23.367Z,0.97
2019-06-07T22:02:54.524Z,1.30
2019-06-07T22:05:24.828Z,1.00
2019-06-07T22:07:55.473Z,1.43
2019-06-07T22:10:26.194Z,1.03
2019-06-07T22:12:56.833Z,1.13
2019-06-07T22:15:34.067Z,1.20
2019-06-07T22:17:59.845Z,1.30
2019-06-07T22:20:30.154Z,1.50
2019-06-07T22:23:01.368Z,1.03
2019-06-07T22:25:36.608Z,1.10
2019-06-07T22:28:08.089Z,1.00
2019-06-07T22:30:38.749Z,1.20
2019-06-07T22:33:10.409Z,1.00
2019-06-07T22:35:41.251Z,1.30
2019-06-07T22:38:18.914Z,1.10
2019-06-07T22:40:49.843Z,0.87
2019-06-07T22:43:21.552Z,1.23
2019-06-07T22:45:52.640Z,1.53
2019-06-07T22:48:23.582Z,1.40
2019-06-07T22:50:54.225Z,1.20
2019-06-07T22:53:24.946Z,1.33
2019-06-07T22:56:01.933Z,1.20
2019-06-07T22:58:33.174Z,1.10
2019-06-07T23:01:04.553Z,1.33
2019-06-07T23:03:35.814Z,1.20
2019-06-07T23:06:06.924Z,1.07
2019-06-07T23:08:37.258Z,0.93
2019-06-07T23:11:09.015Z,1.20
2019-06-07T23:13:39.622Z,1.10
2019-06-07T23:16:09.932Z,1.20
2019-06-07T23:18:41.005Z,1.40
2019-06-07T23:21:11.743Z,1.20
2019-06-07T23:23:42.071Z,1.10
2019-06-07T23:26:14.131Z,1.10
2019-06-07T23:28:44.772Z,1.30
2019-06-07T23:31:16.608Z,0.93
2019-06-07T23:33:47.336Z,1.10
2019-06-07T23:36:19.264Z,1.13
2019-06-07T23:38:51.995Z,1.07
2019-06-07T23:41:22.637Z,1.20
2019-06-07T23:43:53.985Z,1.10
2019-06-07T23:46:25.315Z,1.20
2019-06-07T23:48:56.053Z,0.97
2019-06-07T23:51:27.084Z,1.13
2019-06-07T23:53:58.122Z,0.87
2019-06-07T23:56:29.022Z,1.17
2019-06-07T23:58:59.698Z,1.23
